Onalaska, WA

8:41 PM PST on January 28, 2015 (GMT -0800)
Onalaska WA | Change Station
CLOSE
Current Station
Personal Weather Station
Location: Onalaska, WA
Elevation: 486 ft
Nearby Weather Stations

Elev 486 ft 46.58 °N, 122.72 °W | Updated 6 minutes ago

Partly Cloudy
Partly Cloudy
43.3 °F
Feels Like 43 °F
N
0.0
Wind Variable Wind from SSW

Today
High -- | Low -- °F
--% Chance of Precip.
Yesterday
High -- | Low -- °F
Precip. -- in
7:39 AM 5:08 PM
Waxing Gibbous, 71% visible
Pressure 30.34 in
Visibility 10.0 miles
Clouds Few 1200 ft
Windchill 43 °F
Dew Point 43 °F
Humidity 99%
Rainfall 0.29 in
Snow Depth Not available.
UV 0 out of 12
Pollen 3.60 out of 12
Air Quality Not available.
Flu Activity Not available.
METAR KCLS 290435Z AUTO 00000KT 10SM FEW012 07/07 A3034 RMK AO2

More Conditions Fewer Conditions

Pressure 30.34 in
Visibility 10.0 miles
Clouds Few 1200 ft
Windchill 43 °F
Dew Point 43 °F
Humidity 99%
Rainfall 0.29 in
Snow Depth Not available.
UV 0 out of 12
Pollen 3.60 out of 12
Air Quality Not available.
Flu Activity Not available.
METAR KCLS 290435Z AUTO 00000KT 10SM FEW012 07/07 A3034 RMK AO2

More Conditions Fewer Conditions

10-Day Weather Forecast

Almanac

Astronomy

Jan. 28, 2015 Rise Set
Actual Time
Civil Twilight
Nautical Twilight
Astronomical Twilight
Moon
Length of Visible Light
Length of Day
Tomorrow will be .
, % of the Moon is Illuminated

Today's Extremes

State Highs State Lows

Community

WunderPhotos

Upload Photos

1,791,350 photos uploaded!

WunderBlogs® & News

Nearby

Air Quality

  Air Quality AQ Index Pollutant
Not available.

Snow Depth

Station Depth Elevation

Earthquake Activity

City Distance Mag. Time & Date
Minimum magnitude displayed is 2.5.

Coastal Water Temperatures

Place Temperature

Nearby Weather Stations